sensor_id;sensor_type;location;lat;lon;timestamp;P1;durP1;ratioP1;P2;durP2;ratioP2
67747;SDS011;54543;50.712;6.070;2022-07-23T00:00:18;6.97;;;5.05;;
67747;SDS011;54543;50.712;6.070;2022-07-23T00:02:44;8.32;;;5.50;;
67747;SDS011;54543;50.712;6.070;2022-07-23T00:05:10;11.43;;;6.70;;
67747;SDS011;54543;50.712;6.070;2022-07-23T00:07:36;9.30;;;5.78;;
67747;SDS011;54543;50.712;6.070;2022-07-23T00:10:02;8.57;;;5.88;;
67747;SDS011;54543;50.712;6.070;2022-07-23T00:12:29;9.82;;;6.32;;
67747;SDS011;54543;50.712;6.070;2022-07-23T00:14:54;10.60;;;6.88;;
67747;SDS011;54543;50.712;6.070;2022-07-23T00:17:20;9.60;;;6.97;;
67747;SDS011;54543;50.712;6.070;2022-07-23T00:19:45;11.43;;;8.15;;
67747;SDS011;54543;50.712;6.070;2022-07-23T00:22:11;10.90;;;7.18;;
67747;SDS011;54543;50.712;6.070;2022-07-23T00:24:36;12.85;;;8.02;;
67747;SDS011;54543;50.712;6.070;2022-07-23T00:27:02;11.45;;;7.30;;
67747;SDS011;54543;50.712;6.070;2022-07-23T00:29:28;10.02;;;6.90;;
67747;SDS011;54543;50.712;6.070;2022-07-23T00:31:53;11.40;;;7.40;;
67747;SDS011;54543;50.712;6.070;2022-07-23T00:34:19;12.43;;;7.32;;
67747;SDS011;54543;50.712;6.070;2022-07-23T00:36:44;12.18;;;7.47;;
67747;SDS011;54543;50.712;6.070;2022-07-23T00:39:10;10.68;;;7.43;;
67747;SDS011;54543;50.712;6.070;2022-07-23T00:41:36;11.80;;;7.72;;
67747;SDS011;54543;50.712;6.070;2022-07-23T00:44:14;12.20;;;8.48;;
67747;SDS011;54543;50.712;6.070;2022-07-23T00:46:48;13.85;;;7.80;;
67747;SDS011;54543;50.712;6.070;2022-07-23T00:49:18;11.63;;;7.25;;
67747;SDS011;54543;50.712;6.070;2022-07-23T00:51:47;12.80;;;7.88;;
67747;SDS011;54543;50.712;6.070;2022-07-23T00:54:14;13.07;;;7.63;;
67747;SDS011;54543;50.712;6.070;2022-07-23T00:56:41;13.77;;;8.88;;
67747;SDS011;54543;50.712;6.070;2022-07-23T00:59:08;12.25;;;8.13;;
67747;SDS011;54543;50.712;6.070;2022-07-23T01:01:34;13.32;;;8.70;;
67747;SDS011;54543;50.712;6.070;2022-07-23T01:04:00;12.20;;;8.50;;
67747;SDS011;54543;50.712;6.070;2022-07-23T01:06:25;10.88;;;7.32;;
67747;SDS011;54543;50.712;6.070;2022-07-23T01:08:52;10.43;;;7.25;;
67747;SDS011;54543;50.712;6.070;2022-07-23T01:11:19;12.50;;;8.15;;
67747;SDS011;54543;50.712;6.070;2022-07-23T01:13:45;12.57;;;7.68;;
67747;SDS011;54543;50.712;6.070;2022-07-23T01:16:10;13.48;;;7.88;;
67747;SDS011;54543;50.712;6.070;2022-07-23T01:18:36;11.48;;;7.68;;
67747;SDS011;54543;50.712;6.070;2022-07-23T01:21:02;12.15;;;8.52;;
67747;SDS011;54543;50.712;6.070;2022-07-23T01:23:27;12.80;;;8.35;;
67747;SDS011;54543;50.712;6.070;2022-07-23T01:25:53;13.07;;;8.68;;
67747;SDS011;54543;50.712;6.070;2022-07-23T01:28:20;12.05;;;8.32;;
67747;SDS011;54543;50.712;6.070;2022-07-23T01:30:46;12.57;;;8.63;;
67747;SDS011;54543;50.712;6.070;2022-07-23T01:33:12;12.35;;;8.00;;
67747;SDS011;54543;50.712;6.070;2022-07-23T01:35:38;11.32;;;8.43;;
67747;SDS011;54543;50.712;6.070;2022-07-23T01:38:03;11.98;;;8.25;;
67747;SDS011;54543;50.712;6.070;2022-07-23T01:40:29;11.98;;;7.75;;
67747;SDS011;54543;50.712;6.070;2022-07-23T01:42:54;13.57;;;8.68;;
67747;SDS011;54543;50.712;6.070;2022-07-23T01:45:20;11.80;;;8.25;;
67747;SDS011;54543;50.712;6.070;2022-07-23T01:47:46;13.63;;;9.23;;
67747;SDS011;54543;50.712;6.070;2022-07-23T01:50:12;15.07;;;8.85;;
67747;SDS011;54543;50.712;6.070;2022-07-23T01:52:38;13.40;;;8.55;;
67747;SDS011;54543;50.712;6.070;2022-07-23T01:55:04;13.07;;;8.00;;
67747;SDS011;54543;50.712;6.070;2022-07-23T01:57:31;14.18;;;8.45;;
67747;SDS011;54543;50.712;6.070;2022-07-23T01:59:56;12.15;;;7.93;;
67747;SDS011;54543;50.712;6.070;2022-07-23T02:02:22;12.57;;;8.20;;
67747;SDS011;54543;50.712;6.070;2022-07-23T02:04:48;14.77;;;8.77;;
67747;SDS011;54543;50.712;6.070;2022-07-23T02:07:13;14.68;;;8.57;;
67747;SDS011;54543;50.712;6.070;2022-07-23T02:09:39;12.38;;;8.40;;
67747;SDS011;54543;50.712;6.070;2022-07-23T02:12:04;15.48;;;9.02;;
67747;SDS011;54543;50.712;6.070;2022-07-23T02:14:30;14.70;;;9.75;;
67747;SDS011;54543;50.712;6.070;2022-07-23T02:16:56;14.00;;;9.35;;
67747;SDS011;54543;50.712;6.070;2022-07-23T02:19:21;14.27;;;9.20;;
67747;SDS011;54543;50.712;6.070;2022-07-23T02:21:47;16.15;;;10.02;;
67747;SDS011;54543;50.712;6.070;2022-07-23T02:24:13;14.82;;;9.88;;
67747;SDS011;54543;50.712;6.070;2022-07-23T02:26:38;15.60;;;9.82;;
67747;SDS011;54543;50.712;6.070;2022-07-23T02:29:04;14.70;;;8.98;;
67747;SDS011;54543;50.712;6.070;2022-07-23T02:31:30;18.92;;;10.65;;
67747;SDS011;54543;50.712;6.070;2022-07-23T02:33:56;13.82;;;8.48;;
67747;SDS011;54543;50.712;6.070;2022-07-23T02:36:22;13.68;;;9.00;;
67747;SDS011;54543;50.712;6.070;2022-07-23T02:38:47;13.70;;;8.98;;
67747;SDS011;54543;50.712;6.070;2022-07-23T02:41:13;11.82;;;8.27;;
67747;SDS011;54543;50.712;6.070;2022-07-23T02:43:39;11.93;;;8.77;;
67747;SDS011;54543;50.712;6.070;2022-07-23T02:46:04;12.23;;;8.45;;
67747;SDS011;54543;50.712;6.070;2022-07-23T02:48:30;11.68;;;7.78;;
67747;SDS011;54543;50.712;6.070;2022-07-23T02:50:56;12.02;;;7.88;;
67747;SDS011;54543;50.712;6.070;2022-07-23T02:53:22;10.88;;;7.45;;
67747;SDS011;54543;50.712;6.070;2022-07-23T02:55:48;11.98;;;7.40;;
67747;SDS011;54543;50.712;6.070;2022-07-23T02:58:13;10.65;;;7.75;;
67747;SDS011;54543;50.712;6.070;2022-07-23T03:00:39;13.48;;;8.88;;
67747;SDS011;54543;50.712;6.070;2022-07-23T03:03:05;12.73;;;8.02;;
67747;SDS011;54543;50.712;6.070;2022-07-23T03:05:31;10.35;;;7.50;;
67747;SDS011;54543;50.712;6.070;2022-07-23T03:07:57;11.05;;;7.45;;
67747;SDS011;54543;50.712;6.070;2022-07-23T03:10:22;11.38;;;7.97;;
67747;SDS011;54543;50.712;6.070;2022-07-23T03:12:48;11.30;;;7.80;;
67747;SDS011;54543;50.712;6.070;2022-07-23T03:15:14;11.70;;;8.13;;
67747;SDS011;54543;50.712;6.070;2022-07-23T03:17:39;15.85;;;8.95;;
67747;SDS011;54543;50.712;6.070;2022-07-23T03:20:05;15.70;;;10.05;;
67747;SDS011;54543;50.712;6.070;2022-07-23T03:22:31;16.10;;;11.10;;
67747;SDS011;54543;50.712;6.070;2022-07-23T03:24:57;17.10;;;11.45;;
67747;SDS011;54543;50.712;6.070;2022-07-23T03:27:23;19.80;;;12.15;;
67747;SDS011;54543;50.712;6.070;2022-07-23T03:29:51;16.45;;;11.90;;
67747;SDS011;54543;50.712;6.070;2022-07-23T03:32:17;16.95;;;10.70;;
67747;SDS011;54543;50.712;6.070;2022-07-23T03:34:42;16.02;;;10.55;;
67747;SDS011;54543;50.712;6.070;2022-07-23T03:37:08;14.63;;;10.00;;
67747;SDS011;54543;50.712;6.070;2022-07-23T03:39:34;13.10;;;9.30;;
67747;SDS011;54543;50.712;6.070;2022-07-23T03:41:59;15.75;;;10.30;;
67747;SDS011;54543;50.712;6.070;2022-07-23T03:44:25;16.52;;;10.85;;
67747;SDS011;54543;50.712;6.070;2022-07-23T03:46:51;16.52;;;10.93;;
67747;SDS011;54543;50.712;6.070;2022-07-23T03:49:17;15.38;;;9.80;;
67747;SDS011;54543;50.712;6.070;2022-07-23T03:51:42;16.05;;;10.40;;
67747;SDS011;54543;50.712;6.070;2022-07-23T03:54:08;14.43;;;9.10;;
67747;SDS011;54543;50.712;6.070;2022-07-23T03:56:34;13.18;;;8.45;;
67747;SDS011;54543;50.712;6.070;2022-07-23T03:58:59;15.02;;;10.00;;
67747;SDS011;54543;50.712;6.070;2022-07-23T04:01:25;14.93;;;9.85;;
67747;SDS011;54543;50.712;6.070;2022-07-23T04:03:50;13.07;;;8.45;;
67747;SDS011;54543;50.712;6.070;2022-07-23T04:06:16;11.65;;;7.93;;
67747;SDS011;54543;50.712;6.070;2022-07-23T04:08:42;12.50;;;7.25;;
67747;SDS011;54543;50.712;6.070;2022-07-23T04:11:07;11.57;;;7.93;;
67747;SDS011;54543;50.712;6.070;2022-07-23T04:13:33;15.25;;;8.40;;
67747;SDS011;54543;50.712;6.070;2022-07-23T04:15:58;13.00;;;8.90;;
67747;SDS011;54543;50.712;6.070;2022-07-23T04:18:24;14.73;;;8.38;;
67747;SDS011;54543;50.712;6.070;2022-07-23T04:20:50;12.82;;;8.55;;
67747;SDS011;54543;50.712;6.070;2022-07-23T04:23:17;13.40;;;9.45;;
67747;SDS011;54543;50.712;6.070;2022-07-23T04:25:42;15.77;;;9.52;;
67747;SDS011;54543;50.712;6.070;2022-07-23T04:28:08;12.55;;;8.38;;
67747;SDS011;54543;50.712;6.070;2022-07-23T04:30:34;14.88;;;9.63;;
67747;SDS011;54543;50.712;6.070;2022-07-23T04:33:00;14.32;;;9.52;;
67747;SDS011;54543;50.712;6.070;2022-07-23T04:35:25;13.52;;;9.20;;
67747;SDS011;54543;50.712;6.070;2022-07-23T04:37:51;13.55;;;8.25;;
67747;SDS011;54543;50.712;6.070;2022-07-23T04:40:17;20.10;;;10.63;;
67747;SDS011;54543;50.712;6.070;2022-07-23T04:42:42;17.63;;;10.43;;
67747;SDS011;54543;50.712;6.070;2022-07-23T04:45:08;16.67;;;9.40;;
67747;SDS011;54543;50.712;6.070;2022-07-23T04:47:34;16.35;;;9.15;;
67747;SDS011;54543;50.712;6.070;2022-07-23T04:50:00;23.92;;;9.90;;
67747;SDS011;54543;50.712;6.070;2022-07-23T04:52:25;13.43;;;8.85;;
67747;SDS011;54543;50.712;6.070;2022-07-23T04:54:51;16.42;;;9.60;;
67747;SDS011;54543;50.712;6.070;2022-07-23T04:57:16;17.05;;;9.85;;
67747;SDS011;54543;50.712;6.070;2022-07-23T04:59:42;17.02;;;10.77;;
67747;SDS011;54543;50.712;6.070;2022-07-23T05:02:08;13.75;;;9.80;;
67747;SDS011;54543;50.712;6.070;2022-07-23T05:04:33;12.23;;;8.27;;
67747;SDS011;54543;50.712;6.070;2022-07-23T05:06:59;13.30;;;9.10;;
67747;SDS011;54543;50.712;6.070;2022-07-23T05:09:25;12.45;;;9.13;;
67747;SDS011;54543;50.712;6.070;2022-07-23T05:11:51;14.57;;;9.45;;
67747;SDS011;54543;50.712;6.070;2022-07-23T05:14:16;13.20;;;8.52;;
67747;SDS011;54543;50.712;6.070;2022-07-23T05:16:42;14.02;;;9.40;;
67747;SDS011;54543;50.712;6.070;2022-07-23T05:19:07;13.95;;;9.27;;
67747;SDS011;54543;50.712;6.070;2022-07-23T05:21:33;15.90;;;9.57;;
67747;SDS011;54543;50.712;6.070;2022-07-23T05:23:59;13.30;;;9.88;;
67747;SDS011;54543;50.712;6.070;2022-07-23T05:26:25;12.65;;;9.45;;
67747;SDS011;54543;50.712;6.070;2022-07-23T05:28:51;12.07;;;8.77;;
67747;SDS011;54543;50.712;6.070;2022-07-23T05:31:16;15.20;;;8.60;;
67747;SDS011;54543;50.712;6.070;2022-07-23T05:33:42;10.88;;;7.97;;
67747;SDS011;54543;50.712;6.070;2022-07-23T05:36:08;12.43;;;8.13;;
67747;SDS011;54543;50.712;6.070;2022-07-23T05:38:34;13.02;;;8.93;;
67747;SDS011;54543;50.712;6.070;2022-07-23T05:41:00;13.38;;;9.88;;
67747;SDS011;54543;50.712;6.070;2022-07-23T05:43:26;12.30;;;8.60;;
67747;SDS011;54543;50.712;6.070;2022-07-23T05:45:52;12.65;;;8.13;;
67747;SDS011;54543;50.712;6.070;2022-07-23T05:48:18;13.93;;;9.18;;
67747;SDS011;54543;50.712;6.070;2022-07-23T05:50:44;16.50;;;11.02;;
67747;SDS011;54543;50.712;6.070;2022-07-23T05:53:11;10.73;;;7.20;;
67747;SDS011;54543;50.712;6.070;2022-07-23T05:55:36;11.18;;;7.30;;
67747;SDS011;54543;50.712;6.070;2022-07-23T05:58:02;11.05;;;7.68;;
67747;SDS011;54543;50.712;6.070;2022-07-23T06:00:27;11.45;;;8.32;;
67747;SDS011;54543;50.712;6.070;2022-07-23T06:02:53;10.45;;;7.88;;
67747;SDS011;54543;50.712;6.070;2022-07-23T06:05:19;17.45;;;8.25;;
67747;SDS011;54543;50.712;6.070;2022-07-23T06:07:45;11.68;;;8.23;;
67747;SDS011;54543;50.712;6.070;2022-07-23T06:10:10;10.98;;;7.28;;
67747;SDS011;54543;50.712;6.070;2022-07-23T06:12:36;9.25;;;7.13;;
67747;SDS011;54543;50.712;6.070;2022-07-23T06:15:02;10.23;;;7.15;;
67747;SDS011;54543;50.712;6.070;2022-07-23T06:17:28;10.10;;;8.15;;
67747;SDS011;54543;50.712;6.070;2022-07-23T06:19:54;9.75;;;7.30;;
67747;SDS011;54543;50.712;6.070;2022-07-23T06:22:20;11.10;;;7.72;;
67747;SDS011;54543;50.712;6.070;2022-07-23T06:24:47;10.05;;;7.78;;
67747;SDS011;54543;50.712;6.070;2022-07-23T06:27:14;11.40;;;8.50;;
67747;SDS011;54543;50.712;6.070;2022-07-23T06:29:39;11.60;;;8.65;;
67747;SDS011;54543;50.712;6.070;2022-07-23T06:32:06;12.30;;;9.00;;
67747;SDS011;54543;50.712;6.070;2022-07-23T06:34:32;11.63;;;8.32;;
67747;SDS011;54543;50.712;6.070;2022-07-23T06:36:58;11.57;;;8.45;;
67747;SDS011;54543;50.712;6.070;2022-07-23T06:39:24;11.27;;;8.77;;
67747;SDS011;54543;50.712;6.070;2022-07-23T06:41:49;11.32;;;8.15;;
67747;SDS011;54543;50.712;6.070;2022-07-23T06:44:15;11.38;;;8.40;;
67747;SDS011;54543;50.712;6.070;2022-07-23T06:46:40;11.48;;;9.02;;
67747;SDS011;54543;50.712;6.070;2022-07-23T06:49:06;11.80;;;8.52;;
67747;SDS011;54543;50.712;6.070;2022-07-23T06:51:32;13.05;;;8.93;;
67747;SDS011;54543;50.712;6.070;2022-07-23T06:53:58;14.55;;;10.10;;
67747;SDS011;54543;50.712;6.070;2022-07-23T06:56:24;12.43;;;9.45;;
67747;SDS011;54543;50.712;6.070;2022-07-23T06:58:49;12.40;;;9.40;;
67747;SDS011;54543;50.712;6.070;2022-07-23T07:01:15;13.65;;;10.07;;
67747;SDS011;54543;50.712;6.070;2022-07-23T07:03:41;12.30;;;9.68;;
67747;SDS011;54543;50.712;6.070;2022-07-23T07:06:06;12.05;;;9.40;;
67747;SDS011;54543;50.712;6.070;2022-07-23T07:08:32;14.15;;;9.93;;
67747;SDS011;54543;50.712;6.070;2022-07-23T07:10:58;12.88;;;10.10;;
67747;SDS011;54543;50.712;6.070;2022-07-23T07:13:23;13.73;;;9.98;;
67747;SDS011;54543;50.712;6.070;2022-07-23T07:15:49;13.77;;;9.75;;
67747;SDS011;54543;50.712;6.070;2022-07-23T07:18:14;12.65;;;9.10;;
67747;SDS011;54543;50.712;6.070;2022-07-23T07:20:40;11.40;;;9.02;;
67747;SDS011;54543;50.712;6.070;2022-07-23T07:23:05;10.52;;;7.75;;
67747;SDS011;54543;50.712;6.070;2022-07-23T07:25:31;10.57;;;7.82;;
67747;SDS011;54543;50.712;6.070;2022-07-23T07:27:57;11.57;;;8.15;;
67747;SDS011;54543;50.712;6.070;2022-07-23T07:30:22;13.90;;;10.30;;
67747;SDS011;54543;50.712;6.070;2022-07-23T07:32:48;13.98;;;8.95;;
67747;SDS011;54543;50.712;6.070;2022-07-23T07:35:14;11.93;;;7.88;;
67747;SDS011;54543;50.712;6.070;2022-07-23T07:37:39;12.10;;;7.25;;
67747;SDS011;54543;50.712;6.070;2022-07-23T07:40:05;11.30;;;7.00;;
67747;SDS011;54543;50.712;6.070;2022-07-23T07:42:31;8.88;;;6.32;;
67747;SDS011;54543;50.712;6.070;2022-07-23T07:44:57;10.35;;;7.20;;
67747;SDS011;54543;50.712;6.070;2022-07-23T07:47:23;8.80;;;6.45;;
67747;SDS011;54543;50.712;6.070;2022-07-23T07:49:48;10.20;;;6.68;;
67747;SDS011;54543;50.712;6.070;2022-07-23T07:52:14;11.30;;;6.40;;
67747;SDS011;54543;50.712;6.070;2022-07-23T07:54:39;9.90;;;6.22;;
67747;SDS011;54543;50.712;6.070;2022-07-23T07:57:05;9.73;;;5.55;;
67747;SDS011;54543;50.712;6.070;2022-07-23T07:59:30;10.25;;;5.88;;
67747;SDS011;54543;50.712;6.070;2022-07-23T08:01:56;10.70;;;7.18;;
67747;SDS011;54543;50.712;6.070;2022-07-23T08:04:22;8.27;;;6.10;;
67747;SDS011;54543;50.712;6.070;2022-07-23T08:06:47;13.02;;;7.00;;
67747;SDS011;54543;50.712;6.070;2022-07-23T08:09:13;8.05;;;5.45;;
67747;SDS011;54543;50.712;6.070;2022-07-23T08:11:39;8.68;;;5.85;;
67747;SDS011;54543;50.712;6.070;2022-07-23T08:14:04;9.30;;;7.05;;
67747;SDS011;54543;50.712;6.070;2022-07-23T08:16:30;12.30;;;7.63;;
67747;SDS011;54543;50.712;6.070;2022-07-23T08:18:56;9.45;;;7.00;;
67747;SDS011;54543;50.712;6.070;2022-07-23T08:21:21;9.75;;;7.03;;
67747;SDS011;54543;50.712;6.070;2022-07-23T08:23:47;9.25;;;6.80;;
67747;SDS011;54543;50.712;6.070;2022-07-23T08:26:12;9.57;;;7.32;;
67747;SDS011;54543;50.712;6.070;2022-07-23T08:28:38;11.82;;;7.78;;
67747;SDS011;54543;50.712;6.070;2022-07-23T08:31:04;9.48;;;7.53;;
67747;SDS011;54543;50.712;6.070;2022-07-23T08:33:30;10.30;;;7.05;;
67747;SDS011;54543;50.712;6.070;2022-07-23T08:35:56;10.10;;;7.43;;
67747;SDS011;54543;50.712;6.070;2022-07-23T08:38:22;12.30;;;7.93;;
67747;SDS011;54543;50.712;6.070;2022-07-23T08:40:51;10.88;;;7.57;;
67747;SDS011;54543;50.712;6.070;2022-07-23T08:43:20;10.82;;;7.45;;
67747;SDS011;54543;50.712;6.070;2022-07-23T08:45:51;9.52;;;7.25;;
67747;SDS011;54543;50.712;6.070;2022-07-23T08:48:22;8.68;;;7.05;;
67747;SDS011;54543;50.712;6.070;2022-07-23T08:50:50;9.32;;;6.25;;
67747;SDS011;54543;50.712;6.070;2022-07-23T08:53:18;8.43;;;5.90;;
67747;SDS011;54543;50.712;6.070;2022-07-23T08:55:49;7.60;;;5.25;;
67747;SDS011;54543;50.712;6.070;2022-07-23T08:58:16;8.15;;;6.00;;
67747;SDS011;54543;50.712;6.070;2022-07-23T09:00:42;6.65;;;5.80;;
67747;SDS011;54543;50.712;6.070;2022-07-23T09:03:19;5.82;;;4.90;;
67747;SDS011;54543;50.712;6.070;2022-07-23T09:05:46;6.80;;;4.95;;
67747;SDS011;54543;50.712;6.070;2022-07-23T09:08:13;6.53;;;5.15;;
67747;SDS011;54543;50.712;6.070;2022-07-23T09:18:35;7.38;;;4.95;;
67747;SDS011;54543;50.712;6.070;2022-07-23T09:21:17;5.25;;;3.95;;
67747;SDS011;54543;50.712;6.070;2022-07-23T09:23:44;5.40;;;3.92;;
67747;SDS011;54543;50.712;6.070;2022-07-23T09:26:22;5.70;;;4.72;;
67747;SDS011;54543;50.712;6.070;2022-07-23T09:34:13;7.47;;;5.40;;
67747;SDS011;54543;50.712;6.070;2022-07-23T09:36:40;7.28;;;6.53;;
67747;SDS011;54543;50.712;6.070;2022-07-23T09:39:06;7.63;;;5.47;;
67747;SDS011;54543;50.712;6.070;2022-07-23T09:41:40;7.50;;;5.90;;
67747;SDS011;54543;50.712;6.070;2022-07-23T09:44:11;6.22;;;5.00;;
67747;SDS011;54543;50.712;6.070;2022-07-23T09:46:38;6.55;;;5.47;;
67747;SDS011;54543;50.712;6.070;2022-07-23T09:49:18;6.85;;;6.15;;
67747;SDS011;54543;50.712;6.070;2022-07-23T09:51:56;7.15;;;6.00;;
67747;SDS011;54543;50.712;6.070;2022-07-23T09:54:28;6.68;;;5.03;;
67747;SDS011;54543;50.712;6.070;2022-07-23T09:59:27;6.60;;;4.05;;
67747;SDS011;54543;50.712;6.070;2022-07-23T10:01:56;6.70;;;5.30;;
67747;SDS011;54543;50.712;6.070;2022-07-23T10:04:24;5.80;;;4.88;;
67747;SDS011;54543;50.712;6.070;2022-07-23T10:06:51;6.32;;;5.32;;
67747;SDS011;54543;50.712;6.070;2022-07-23T10:09:22;8.75;;;5.63;;
67747;SDS011;54543;50.712;6.070;2022-07-23T10:11:52;6.30;;;5.10;;
67747;SDS011;54543;50.712;6.070;2022-07-23T10:14:22;5.90;;;4.82;;
67747;SDS011;54543;50.712;6.070;2022-07-23T10:16:48;4.63;;;3.97;;
67747;SDS011;54543;50.712;6.070;2022-07-23T10:19:14;4.95;;;4.38;;
67747;SDS011;54543;50.712;6.070;2022-07-23T10:21:40;5.35;;;4.32;;
67747;SDS011;54543;50.712;6.070;2022-07-23T10:35:56;4.80;;;3.47;;
67747;SDS011;54543;50.712;6.070;2022-07-23T10:38:51;4.85;;;3.70;;
67747;SDS011;54543;50.712;6.070;2022-07-23T10:41:37;6.55;;;4.90;;
67747;SDS011;54543;50.712;6.070;2022-07-23T10:46:53;6.45;;;4.57;;
67747;SDS011;54543;50.712;6.070;2022-07-23T10:49:38;5.50;;;4.15;;
67747;SDS011;54543;50.712;6.070;2022-07-23T10:54:42;3.42;;;2.88;;
67747;SDS011;54543;50.712;6.070;2022-07-23T10:57:09;4.47;;;3.33;;
67747;SDS011;54543;50.712;6.070;2022-07-23T11:02:34;2.97;;;2.47;;
67747;SDS011;54543;50.712;6.070;2022-07-23T11:05:04;4.45;;;2.83;;
67747;SDS011;54543;50.712;6.070;2022-07-23T11:07:32;5.55;;;3.00;;
67747;SDS011;54543;50.712;6.070;2022-07-23T11:09:58;4.10;;;3.08;;
67747;SDS011;54543;50.712;6.070;2022-07-23T11:17:37;4.05;;;2.88;;
67747;SDS011;54543;50.712;6.070;2022-07-23T11:22:38;4.38;;;3.33;;
67747;SDS011;54543;50.712;6.070;2022-07-23T11:25:05;5.15;;;3.25;;
67747;SDS011;54543;50.712;6.070;2022-07-23T11:30:04;4.10;;;3.25;;
67747;SDS011;54543;50.712;6.070;2022-07-23T11:32:35;3.58;;;2.85;;
67747;SDS011;54543;50.712;6.070;2022-07-23T11:35:18;3.58;;;2.67;;
67747;SDS011;54543;50.712;6.070;2022-07-23T11:37:52;3.75;;;2.63;;
67747;SDS011;54543;50.712;6.070;2022-07-23T11:40:19;5.45;;;3.65;;
67747;SDS011;54543;50.712;6.070;2022-07-23T11:43:03;4.20;;;3.33;;
67747;SDS011;54543;50.712;6.070;2022-07-23T11:45:38;5.28;;;3.28;;
67747;SDS011;54543;50.712;6.070;2022-07-23T11:48:06;4.15;;;3.05;;
67747;SDS011;54543;50.712;6.070;2022-07-23T11:50:34;4.07;;;3.30;;
67747;SDS011;54543;50.712;6.070;2022-07-23T11:53:02;4.00;;;3.10;;
67747;SDS011;54543;50.712;6.070;2022-07-23T11:55:28;4.13;;;3.00;;
67747;SDS011;54543;50.712;6.070;2022-07-23T11:57:54;4.70;;;3.65;;
67747;SDS011;54543;50.712;6.070;2022-07-23T12:00:22;4.70;;;3.40;;
67747;SDS011;54543;50.712;6.070;2022-07-23T12:02:52;4.05;;;2.97;;
67747;SDS011;54543;50.712;6.070;2022-07-23T12:05:22;4.15;;;3.30;;
67747;SDS011;54543;50.712;6.070;2022-07-23T12:07:50;3.85;;;3.45;;
67747;SDS011;54543;50.712;6.070;2022-07-23T12:10:18;3.47;;;2.83;;
67747;SDS011;54543;50.712;6.070;2022-07-23T12:12:47;4.03;;;3.47;;
67747;SDS011;54543;50.712;6.070;2022-07-23T12:15:26;4.25;;;3.40;;
67747;SDS011;54543;50.712;6.070;2022-07-23T12:17:55;3.70;;;3.08;;
67747;SDS011;54543;50.712;6.070;2022-07-23T12:20:22;5.10;;;3.30;;
67747;SDS011;54543;50.712;6.070;2022-07-23T12:22:49;3.33;;;2.60;;
67747;SDS011;54543;50.712;6.070;2022-07-23T12:25:18;3.90;;;2.88;;
67747;SDS011;54543;50.712;6.070;2022-07-23T12:27:45;3.53;;;2.80;;
67747;SDS011;54543;50.712;6.070;2022-07-23T12:30:23;3.50;;;3.00;;
67747;SDS011;54543;50.712;6.070;2022-07-23T12:32:51;4.30;;;2.65;;
67747;SDS011;54543;50.712;6.070;2022-07-23T12:35:19;4.20;;;2.78;;
67747;SDS011;54543;50.712;6.070;2022-07-23T12:37:46;3.70;;;2.80;;
67747;SDS011;54543;50.712;6.070;2022-07-23T12:40:20;3.30;;;2.80;;
67747;SDS011;54543;50.712;6.070;2022-07-23T12:42:47;5.30;;;3.00;;
67747;SDS011;54543;50.712;6.070;2022-07-23T12:45:13;4.25;;;2.90;;
67747;SDS011;54543;50.712;6.070;2022-07-23T12:47:52;3.05;;;2.38;;
67747;SDS011;54543;50.712;6.070;2022-07-23T12:50:57;4.10;;;2.83;;
67747;SDS011;54543;50.712;6.070;2022-07-23T12:53:19;3.60;;;3.03;;
67747;SDS011;54543;50.712;6.070;2022-07-23T12:55:45;3.83;;;2.72;;
67747;SDS011;54543;50.712;6.070;2022-07-23T12:58:15;3.63;;;3.20;;
67747;SDS011;54543;50.712;6.070;2022-07-23T13:03:28;4.38;;;2.90;;
67747;SDS011;54543;50.712;6.070;2022-07-23T13:05:54;7.35;;;3.03;;
67747;SDS011;54543;50.712;6.070;2022-07-23T13:08:21;3.55;;;2.97;;
67747;SDS011;54543;50.712;6.070;2022-07-23T13:10:47;4.25;;;3.20;;
67747;SDS011;54543;50.712;6.070;2022-07-23T13:13:14;3.88;;;3.00;;
67747;SDS011;54543;50.712;6.070;2022-07-23T13:15:41;4.55;;;2.97;;
67747;SDS011;54543;50.712;6.070;2022-07-23T13:18:07;3.15;;;2.78;;
67747;SDS011;54543;50.712;6.070;2022-07-23T13:20:33;3.72;;;2.58;;
67747;SDS011;54543;50.712;6.070;2022-07-23T13:22:59;3.42;;;3.00;;
67747;SDS011;54543;50.712;6.070;2022-07-23T13:25:26;3.60;;;3.00;;
67747;SDS011;54543;50.712;6.070;2022-07-23T13:27:51;4.53;;;3.50;;
67747;SDS011;54543;50.712;6.070;2022-07-23T13:30:17;5.40;;;3.28;;
67747;SDS011;54543;50.712;6.070;2022-07-23T13:32:43;4.28;;;3.28;;
67747;SDS011;54543;50.712;6.070;2022-07-23T13:35:08;3.63;;;2.95;;
67747;SDS011;54543;50.712;6.070;2022-07-23T13:37:34;4.20;;;3.25;;
67747;SDS011;54543;50.712;6.070;2022-07-23T13:40:00;3.92;;;2.90;;
67747;SDS011;54543;50.712;6.070;2022-07-23T13:42:26;3.80;;;2.72;;
67747;SDS011;54543;50.712;6.070;2022-07-23T13:44:52;3.50;;;2.58;;
67747;SDS011;54543;50.712;6.070;2022-07-23T13:47:18;3.60;;;2.47;;
67747;SDS011;54543;50.712;6.070;2022-07-23T13:49:43;5.32;;;2.70;;
67747;SDS011;54543;50.712;6.070;2022-07-23T13:52:09;6.43;;;3.38;;
67747;SDS011;54543;50.712;6.070;2022-07-23T13:54:34;4.65;;;3.10;;
67747;SDS011;54543;50.712;6.070;2022-07-23T13:57:00;4.25;;;2.80;;
67747;SDS011;54543;50.712;6.070;2022-07-23T13:59:26;3.83;;;3.15;;
67747;SDS011;54543;50.712;6.070;2022-07-23T14:01:51;3.47;;;2.80;;
67747;SDS011;54543;50.712;6.070;2022-07-23T14:04:17;4.28;;;2.95;;
67747;SDS011;54543;50.712;6.070;2022-07-23T14:06:42;3.88;;;3.10;;
67747;SDS011;54543;50.712;6.070;2022-07-23T14:09:08;3.45;;;2.92;;
67747;SDS011;54543;50.712;6.070;2022-07-23T14:11:33;4.18;;;3.00;;
67747;SDS011;54543;50.712;6.070;2022-07-23T14:13:59;3.90;;;3.10;;
67747;SDS011;54543;50.712;6.070;2022-07-23T14:16:26;3.72;;;3.17;;
67747;SDS011;54543;50.712;6.070;2022-07-23T14:18:51;4.57;;;3.47;;
67747;SDS011;54543;50.712;6.070;2022-07-23T14:21:17;5.75;;;4.57;;
67747;SDS011;54543;50.712;6.070;2022-07-23T14:23:43;4.45;;;3.38;;
67747;SDS011;54543;50.712;6.070;2022-07-23T14:26:08;5.20;;;4.07;;
67747;SDS011;54543;50.712;6.070;2022-07-23T14:28:34;16.48;;;14.82;;
67747;SDS011;54543;50.712;6.070;2022-07-23T14:30:59;16.88;;;15.25;;
67747;SDS011;54543;50.712;6.070;2022-07-23T14:33:25;15.68;;;14.02;;
67747;SDS011;54543;50.712;6.070;2022-07-23T14:35:51;30.25;;;27.27;;
67747;SDS011;54543;50.712;6.070;2022-07-23T14:38:17;16.02;;;14.30;;
67747;SDS011;54543;50.712;6.070;2022-07-23T14:40:43;10.93;;;9.82;;
67747;SDS011;54543;50.712;6.070;2022-07-23T14:43:08;7.88;;;7.07;;
67747;SDS011;54543;50.712;6.070;2022-07-23T14:45:34;35.58;;;32.08;;
67747;SDS011;54543;50.712;6.070;2022-07-23T14:48:00;17.75;;;16.00;;
67747;SDS011;54543;50.712;6.070;2022-07-23T14:50:28;11.68;;;9.77;;
67747;SDS011;54543;50.712;6.070;2022-07-23T14:52:54;9.75;;;8.68;;
67747;SDS011;54543;50.712;6.070;2022-07-23T14:55:19;11.43;;;10.25;;
67747;SDS011;54543;50.712;6.070;2022-07-23T14:57:45;10.85;;;9.75;;
67747;SDS011;54543;50.712;6.070;2022-07-23T15:00:11;25.75;;;23.30;;
67747;SDS011;54543;50.712;6.070;2022-07-23T15:02:37;11.75;;;10.50;;
67747;SDS011;54543;50.712;6.070;2022-07-23T15:05:03;13.35;;;12.02;;
67747;SDS011;54543;50.712;6.070;2022-07-23T15:07:29;6.78;;;6.07;;
67747;SDS011;54543;50.712;6.070;2022-07-23T15:09:55;18.67;;;16.92;;
67747;SDS011;54543;50.712;6.070;2022-07-23T15:12:21;8.00;;;7.20;;
67747;SDS011;54543;50.712;6.070;2022-07-23T15:14:47;22.30;;;20.20;;
67747;SDS011;54543;50.712;6.070;2022-07-23T15:17:12;8.18;;;7.38;;
67747;SDS011;54543;50.712;6.070;2022-07-23T15:19:38;9.13;;;8.23;;
67747;SDS011;54543;50.712;6.070;2022-07-23T15:22:04;21.50;;;19.50;;
67747;SDS011;54543;50.712;6.070;2022-07-23T15:24:30;19.95;;;18.08;;